createdAt,value
2023-01-31T00:01:40.226Z,32.92
2023-01-31T00:04:11.547Z,36.15
2023-01-31T00:06:42.464Z,31.60
2023-01-31T00:09:11.088Z,31.13
2023-01-31T00:11:38.508Z,32.45
2023-01-31T00:14:07.011Z,34.67
2023-01-31T00:16:34.019Z,35.05
2023-01-31T00:19:00.845Z,30.77
2023-01-31T00:21:29.926Z,35.83
2023-01-31T00:23:58.402Z,21.80
2023-01-31T00:26:27.418Z,16.83
2023-01-31T00:28:55.755Z,21.50
2023-01-31T00:31:24.616Z,21.15
2023-01-31T00:33:53.480Z,21.55
2023-01-31T00:36:28.171Z,18.02
2023-01-31T00:38:57.337Z,16.65
2023-01-31T00:41:26.145Z,16.15
2023-01-31T00:43:55.786Z,20.73
2023-01-31T00:46:23.837Z,16.92
2023-01-31T00:48:51.000Z,15.68
2023-01-31T00:51:18.935Z,22.20
2023-01-31T00:53:46.068Z,26.88
2023-01-31T00:56:16.546Z,24.98
2023-01-31T00:58:44.265Z,29.13
2023-01-31T01:01:17.591Z,28.25
2023-01-31T01:03:45.732Z,28.73
2023-01-31T01:06:13.891Z,27.10
2023-01-31T01:08:42.335Z,30.10
2023-01-31T01:11:12.358Z,34.95
2023-01-31T01:13:39.669Z,29.27
2023-01-31T01:16:19.026Z,29.38
2023-01-31T01:18:48.364Z,29.35
2023-01-31T01:21:21.652Z,24.45
2023-01-31T01:23:49.562Z,27.40
2023-01-31T01:26:28.931Z,24.85
2023-01-31T01:28:57.715Z,22.33
2023-01-31T01:31:30.847Z,21.13
2023-01-31T01:34:01.830Z,20.65
2023-01-31T01:36:29.324Z,17.58
2023-01-31T01:38:56.650Z,18.95
2023-01-31T01:41:23.782Z,18.90
2023-01-31T01:43:53.159Z,21.15
2023-01-31T01:46:32.895Z,19.15
2023-01-31T01:49:06.137Z,19.15
2023-01-31T01:51:35.282Z,16.75
2023-01-31T01:54:09.240Z,15.77
2023-01-31T01:56:39.847Z,13.20
2023-01-31T01:59:18.667Z,18.23
2023-01-31T02:01:48.275Z,18.27
2023-01-31T02:04:21.036Z,14.35
2023-01-31T02:06:48.198Z,18.00
2023-01-31T02:09:33.432Z,23.85
2023-01-31T02:12:00.906Z,13.75
2023-01-31T02:14:42.596Z,23.65
2023-01-31T02:17:14.876Z,31.20
2023-01-31T02:20:01.496Z,26.60
2023-01-31T02:22:39.803Z,21.05
2023-01-31T02:25:30.879Z,23.10
2023-01-31T02:28:24.645Z,22.85
2023-01-31T02:31:16.076Z,22.75
2023-01-31T02:33:45.596Z,26.83
2023-01-31T02:37:01.458Z,27.17
2023-01-31T02:39:58.970Z,21.20
2023-01-31T02:43:19.485Z,21.98
2023-01-31T02:45:46.454Z,22.30
2023-01-31T02:48:42.674Z,25.52
2023-01-31T02:51:20.573Z,25.33
2023-01-31T02:54:00.801Z,33.47
2023-01-31T02:56:31.763Z,26.02
2023-01-31T02:59:05.966Z,25.27
2023-01-31T03:01:40.628Z,26.75
2023-01-31T03:04:16.391Z,28.00
2023-01-31T03:07:00.041Z,24.00
2023-01-31T03:09:36.917Z,24.33
2023-01-31T03:12:06.753Z,26.48
2023-01-31T03:14:47.602Z,24.88
2023-01-31T03:17:34.639Z,27.95
2023-01-31T03:20:22.267Z,27.17
2023-01-31T03:22:53.743Z,24.30
2023-01-31T03:25:36.941Z,21.25
2023-01-31T03:28:18.648Z,21.27
2023-01-31T03:31:00.092Z,22.60
2023-01-31T03:33:32.745Z,30.75
2023-01-31T03:36:17.830Z,32.28
2023-01-31T03:39:11.921Z,28.48
2023-01-31T03:42:20.388Z,28.05
2023-01-31T03:44:47.279Z,26.67
2023-01-31T03:47:50.236Z,29.77
2023-01-31T03:50:26.839Z,22.95
2023-01-31T03:52:58.163Z,26.05
2023-01-31T03:55:37.335Z,23.75
2023-01-31T03:58:06.675Z,26.65
2023-01-31T04:03:25.262Z,29.50
2023-01-31T04:05:52.269Z,36.60
2023-01-31T04:08:19.405Z,27.60
2023-01-31T04:10:46.475Z,27.75
2023-01-31T04:13:13.849Z,31.25
2023-01-31T04:15:40.731Z,32.25
2023-01-31T04:18:07.825Z,37.47
2023-01-31T04:20:34.820Z,32.80
2023-01-31T04:23:01.640Z,34.55
2023-01-31T04:25:30.479Z,31.40
2023-01-31T04:27:58.736Z,35.22
2023-01-31T04:30:25.571Z,32.10
2023-01-31T04:32:52.470Z,33.53
2023-01-31T04:35:19.557Z,33.50
2023-01-31T04:37:46.641Z,37.53
2023-01-31T04:40:16.948Z,26.88
2023-01-31T04:42:43.980Z,32.92
2023-01-31T04:45:11.335Z,27.95
2023-01-31T04:47:38.535Z,24.85
2023-01-31T04:50:05.824Z,25.23
2023-01-31T04:52:33.037Z,33.55
2023-01-31T04:55:00.316Z,27.98
2023-01-31T04:57:27.057Z,31.98
2023-01-31T04:59:53.876Z,29.30
2023-01-31T05:02:23.684Z,32.33
2023-01-31T05:04:53.146Z,33.17
2023-01-31T05:07:20.298Z,33.70
2023-01-31T05:09:52.231Z,32.83
2023-01-31T05:12:19.107Z,25.20
2023-01-31T05:17:41.459Z,36.85
2023-01-31T05:20:11.162Z,34.15
2023-01-31T05:22:44.488Z,32.22
2023-01-31T05:25:13.933Z,34.70
2023-01-31T05:27:41.754Z,38.83
2023-01-31T05:30:09.987Z,41.95
2023-01-31T05:32:37.959Z,48.28
2023-01-31T05:35:14.597Z,46.58
2023-01-31T05:37:44.196Z,54.95
2023-01-31T05:40:13.049Z,44.22
2023-01-31T05:42:40.858Z,43.75
2023-01-31T05:45:11.729Z,42.03
2023-01-31T05:47:38.838Z,39.17
2023-01-31T05:50:06.639Z,38.85
2023-01-31T05:52:36.080Z,37.80
2023-01-31T05:55:13.531Z,38.50
2023-01-31T05:57:40.442Z,37.10
2023-01-31T06:00:07.852Z,34.13
2023-01-31T06:02:34.890Z,28.63
2023-01-31T06:05:01.877Z,23.92
2023-01-31T06:07:28.889Z,9.43
2023-01-31T06:09:55.913Z,12.88
2023-01-31T06:12:22.944Z,11.43
2023-01-31T06:14:55.691Z,8.48
2023-01-31T06:17:24.251Z,10.27
2023-01-31T06:19:54.031Z,11.45
2023-01-31T06:22:36.476Z,9.07
2023-01-31T06:25:03.547Z,9.07
2023-01-31T06:27:38.382Z,12.35
2023-01-31T06:30:05.507Z,13.75
2023-01-31T06:32:34.834Z,18.48
2023-01-31T06:35:01.646Z,21.73
2023-01-31T06:37:28.533Z,19.25
2023-01-31T06:39:55.644Z,18.60
2023-01-31T06:45:03.906Z,20.30
2023-01-31T06:47:31.007Z,22.02
2023-01-31T06:50:00.845Z,20.60
2023-01-31T06:52:27.621Z,14.38
2023-01-31T06:54:55.068Z,16.40
2023-01-31T06:57:21.968Z,15.43
2023-01-31T06:59:51.038Z,19.65
2023-01-31T07:02:18.374Z,12.48
2023-01-31T07:04:45.188Z,19.52
2023-01-31T07:07:12.370Z,15.27
2023-01-31T07:09:39.649Z,21.13
2023-01-31T07:12:06.607Z,15.60
2023-01-31T07:14:33.474Z,18.38
2023-01-31T07:17:00.648Z,17.45
2023-01-31T07:19:27.568Z,11.68
2023-01-31T07:21:54.520Z,15.68
2023-01-31T07:24:21.651Z,14.00
2023-01-31T07:26:56.965Z,10.50
2023-01-31T07:29:24.092Z,12.85
2023-01-31T07:31:51.417Z,12.38
2023-01-31T07:34:19.081Z,13.30
2023-01-31T07:36:49.559Z,10.02
2023-01-31T07:39:21.907Z,14.15
2023-01-31T07:41:59.244Z,9.65
2023-01-31T07:44:33.212Z,11.85
2023-01-31T07:47:00.419Z,11.93
2023-01-31T07:49:28.542Z,11.48
2023-01-31T07:51:55.464Z,11.27
2023-01-31T07:54:22.981Z,8.88
2023-01-31T07:56:49.827Z,10.80
2023-01-31T07:59:17.769Z,10.85
2023-01-31T08:02:04.271Z,12.15
2023-01-31T08:04:31.071Z,8.77
2023-01-31T08:06:59.809Z,14.95
2023-01-31T08:09:26.948Z,9.57
2023-01-31T08:11:58.138Z,11.10
2023-01-31T08:14:52.707Z,15.20
2023-01-31T08:17:28.445Z,14.77
2023-01-31T08:19:55.742Z,12.18
2023-01-31T08:22:22.547Z,14.52
2023-01-31T08:24:51.689Z,16.08
2023-01-31T08:27:18.859Z,16.00
2023-01-31T08:29:46.202Z,28.13
2023-01-31T08:32:13.071Z,17.85
2023-01-31T08:34:40.123Z,18.75
2023-01-31T08:37:06.986Z,23.60
2023-01-31T08:39:33.911Z,21.25
2023-01-31T08:42:01.655Z,17.85
2023-01-31T08:44:36.935Z,13.23
2023-01-31T08:47:06.207Z,12.35
2023-01-31T08:49:36.489Z,18.08
2023-01-31T08:52:03.377Z,12.30
2023-01-31T08:54:31.381Z,14.43
2023-01-31T08:56:58.594Z,10.15
2023-01-31T08:59:25.475Z,12.55
2023-01-31T09:01:52.649Z,9.48
2023-01-31T09:04:19.784Z,8.02
2023-01-31T09:06:57.341Z,11.68
2023-01-31T09:09:26.527Z,8.38
2023-01-31T09:11:53.620Z,8.18
2023-01-31T09:14:20.771Z,13.05
2023-01-31T09:16:47.974Z,8.57
2023-01-31T09:19:15.127Z,7.40
2023-01-31T09:21:42.535Z,7.72
2023-01-31T09:24:10.332Z,9.27
2023-01-31T09:26:39.266Z,4.95
2023-01-31T09:29:06.306Z,8.23
2023-01-31T09:31:33.495Z,9.95
2023-01-31T09:34:02.244Z,10.63
2023-01-31T09:36:30.218Z,9.45
2023-01-31T09:38:57.803Z,8.50
2023-01-31T09:41:37.518Z,8.27
2023-01-31T09:44:11.088Z,8.63
2023-01-31T09:46:47.952Z,8.57
2023-01-31T09:49:21.011Z,8.32
2023-01-31T09:51:55.379Z,12.00
2023-01-31T09:54:32.030Z,7.45
2023-01-31T09:57:08.770Z,4.75
2023-01-31T10:00:35.496Z,8.38
2023-01-31T10:03:19.734Z,7.05
2023-01-31T10:05:58.690Z,6.60
2023-01-31T10:08:31.798Z,7.10
2023-01-31T10:11:06.783Z,9.70
2023-01-31T10:13:49.841Z,6.53
2023-01-31T10:16:39.380Z,10.98
2023-01-31T10:19:25.698Z,6.22
2023-01-31T10:21:58.683Z,9.32
2023-01-31T10:24:41.440Z,7.15
2023-01-31T10:27:19.585Z,8.20
2023-01-31T10:29:58.877Z,7.93
2023-01-31T10:32:35.297Z,9.75
2023-01-31T10:35:24.790Z,7.65
2023-01-31T10:37:58.211Z,4.25
2023-01-31T10:40:42.139Z,8.98
2023-01-31T10:43:21.985Z,10.38
2023-01-31T10:45:48.863Z,7.68
2023-01-31T10:48:19.936Z,8.05
2023-01-31T10:51:08.083Z,7.15
2023-01-31T10:53:37.971Z,9.70
2023-01-31T10:56:17.759Z,8.15
2023-01-31T10:58:47.034Z,12.10
2023-01-31T11:01:15.334Z,6.10
2023-01-31T11:03:52.732Z,3.67
2023-01-31T11:06:22.929Z,6.60
2023-01-31T11:09:01.894Z,5.05
2023-01-31T11:12:08.559Z,5.32
2023-01-31T11:15:00.434Z,5.18
2023-01-31T11:17:38.028Z,4.07
2023-01-31T11:20:07.017Z,3.88
2023-01-31T11:22:37.840Z,3.58
2023-01-31T11:25:06.450Z,2.72
2023-01-31T11:27:44.170Z,5.75
2023-01-31T11:30:31.385Z,6.57
2023-01-31T11:32:59.217Z,4.68
2023-01-31T11:35:29.771Z,4.47
2023-01-31T11:38:04.842Z,3.42
2023-01-31T11:40:44.828Z,5.65
2023-01-31T11:43:15.333Z,4.40
2023-01-31T11:45:53.934Z,4.30
2023-01-31T11:51:10.181Z,2.70
2023-01-31T11:53:47.009Z,3.58
2023-01-31T11:56:20.615Z,8.23
2023-01-31T11:58:53.230Z,6.82
2023-01-31T12:01:22.910Z,4.80
2023-01-31T12:04:02.619Z,4.38
2023-01-31T12:06:30.655Z,3.47
2023-01-31T12:08:59.874Z,3.75
2023-01-31T12:11:33.736Z,2.83
2023-01-31T12:14:15.332Z,3.00
2023-01-31T12:16:44.437Z,3.97
2023-01-31T12:19:22.355Z,2.80
2023-01-31T12:22:40.472Z,2.15
2023-01-31T12:25:50.136Z,4.30
2023-01-31T12:28:44.477Z,4.63
2023-01-31T12:31:29.482Z,6.22
2023-01-31T12:34:08.613Z,3.33
2023-01-31T12:36:44.313Z,3.67
2023-01-31T12:39:35.872Z,2.65
2023-01-31T12:42:46.268Z,4.13
2023-01-31T12:46:07.576Z,7.38
2023-01-31T12:48:55.388Z,2.75
2023-01-31T12:51:40.304Z,5.95
2023-01-31T12:54:16.188Z,3.65
2023-01-31T12:56:56.109Z,5.38
2023-01-31T12:59:35.325Z,3.58
2023-01-31T13:02:08.354Z,5.03
2023-01-31T13:04:39.506Z,4.53
2023-01-31T13:07:15.231Z,5.47
2023-01-31T13:09:42.631Z,4.07
2023-01-31T13:12:17.094Z,3.03
2023-01-31T13:14:51.844Z,6.15
2023-01-31T13:17:24.558Z,4.03
2023-01-31T13:19:57.639Z,5.05
2023-01-31T13:22:33.564Z,6.20
2023-01-31T13:25:18.561Z,4.75
2023-01-31T13:27:57.023Z,13.43
2023-01-31T13:30:35.878Z,6.82
2023-01-31T13:33:22.063Z,8.48
2023-01-31T13:35:57.861Z,6.60
2023-01-31T13:38:31.837Z,3.78
2023-01-31T13:41:00.662Z,5.70
2023-01-31T13:43:27.577Z,3.00
2023-01-31T13:45:59.715Z,3.85
2023-01-31T13:48:37.508Z,6.25
2023-01-31T13:51:19.519Z,4.78
2023-01-31T13:53:51.596Z,2.90
2023-01-31T13:56:26.286Z,2.35
2023-01-31T13:58:55.938Z,6.00
2023-01-31T14:01:35.545Z,4.70
2023-01-31T14:04:13.775Z,6.18
2023-01-31T14:06:55.750Z,3.63
2023-01-31T14:09:39.567Z,3.88
2023-01-31T14:12:18.833Z,2.90
2023-01-31T14:14:46.944Z,4.05
2023-01-31T14:17:36.807Z,4.10
2023-01-31T14:20:24.967Z,5.28
2023-01-31T14:23:32.690Z,5.20
2023-01-31T14:25:59.712Z,5.28
2023-01-31T14:28:27.171Z,3.63
2023-01-31T14:30:56.153Z,4.93
2023-01-31T14:33:47.274Z,7.50
2023-01-31T14:36:45.089Z,5.35
2023-01-31T14:39:46.906Z,5.72
2023-01-31T14:43:12.467Z,4.57
2023-01-31T14:45:58.109Z,5.07
2023-01-31T14:48:57.481Z,2.72
2023-01-31T14:52:01.792Z,2.75
2023-01-31T14:54:31.865Z,4.60
2023-01-31T14:57:18.890Z,4.30
2023-01-31T15:00:14.628Z,4.80
2023-01-31T15:03:06.960Z,4.57
2023-01-31T15:05:47.201Z,2.25
2023-01-31T15:08:16.738Z,4.68
2023-01-31T15:11:03.389Z,2.75
2023-01-31T15:13:52.891Z,1.73
2023-01-31T15:16:48.990Z,3.95
2023-01-31T15:19:24.629Z,6.78
2023-01-31T15:24:46.115Z,5.05
2023-01-31T15:27:51.571Z,10.02
2023-01-31T15:30:21.118Z,5.88
2023-01-31T15:32:56.842Z,16.17
2023-01-31T15:36:05.571Z,9.23
2023-01-31T15:38:49.037Z,10.25
2023-01-31T15:41:19.115Z,9.40
2023-01-31T15:44:29.433Z,4.72
2023-01-31T15:46:58.405Z,9.23
2023-01-31T15:49:40.152Z,6.47
2023-01-31T15:52:19.559Z,9.30
2023-01-31T15:54:56.405Z,6.25
2023-01-31T15:57:38.652Z,9.23
2023-01-31T16:00:06.396Z,8.57
2023-01-31T16:02:33.791Z,7.22
2023-01-31T16:05:00.926Z,10.98
2023-01-31T16:07:31.753Z,6.72
2023-01-31T16:10:03.973Z,6.93
2023-01-31T16:12:41.804Z,8.13
2023-01-31T16:15:21.262Z,15.52
2023-01-31T16:20:44.409Z,12.80
2023-01-31T16:23:30.445Z,11.93
2023-01-31T16:26:06.454Z,7.45
2023-01-31T16:29:01.714Z,11.38
2023-01-31T16:31:40.753Z,4.60
2023-01-31T16:34:24.033Z,4.45
2023-01-31T16:36:51.029Z,4.80
2023-01-31T16:39:42.053Z,5.32
2023-01-31T16:42:23.760Z,5.05
2023-01-31T16:44:51.423Z,6.07
2023-01-31T16:47:33.423Z,5.63
2023-01-31T16:50:32.861Z,7.80
2023-01-31T16:53:15.498Z,7.85
2023-01-31T16:55:42.462Z,7.65
2023-01-31T16:58:10.850Z,6.75
2023-01-31T17:00:43.883Z,5.32
2023-01-31T17:03:19.599Z,6.20
2023-01-31T17:05:47.661Z,6.07
2023-01-31T17:08:21.112Z,5.30
2023-01-31T17:10:55.118Z,3.83
2023-01-31T17:13:26.919Z,8.52
2023-01-31T17:18:41.446Z,9.13
2023-01-31T17:21:12.719Z,7.78
2023-01-31T17:23:42.864Z,7.43
2023-01-31T17:26:25.039Z,6.18
2023-01-31T17:29:01.476Z,9.38
2023-01-31T17:31:31.517Z,6.50
2023-01-31T17:34:03.121Z,4.40
2023-01-31T17:36:32.491Z,3.55
2023-01-31T17:39:09.767Z,5.05
2023-01-31T17:41:41.573Z,5.85
2023-01-31T17:44:12.994Z,7.10
2023-01-31T17:46:43.988Z,7.32
2023-01-31T17:49:11.726Z,9.80
2023-01-31T17:51:41.041Z,9.18
2023-01-31T17:54:08.282Z,4.10
2023-01-31T17:56:35.141Z,4.60
2023-01-31T17:59:02.336Z,5.53
2023-01-31T18:01:29.857Z,3.70
2023-01-31T18:03:58.276Z,8.70
2023-01-31T18:06:25.382Z,5.60
2023-01-31T18:08:56.438Z,6.78
2023-01-31T18:11:23.422Z,4.97
2023-01-31T18:13:50.935Z,4.82
2023-01-31T18:16:30.765Z,4.10
2023-01-31T18:18:58.007Z,4.20
2023-01-31T18:24:34.169Z,4.95
2023-01-31T18:27:01.699Z,3.92
2023-01-31T18:29:28.895Z,6.78
2023-01-31T18:31:57.909Z,5.75
2023-01-31T18:34:25.618Z,10.48
2023-01-31T18:36:52.605Z,9.00
2023-01-31T18:39:19.541Z,5.80
2023-01-31T18:44:37.104Z,6.00
2023-01-31T18:47:04.183Z,4.72
2023-01-31T18:49:36.242Z,5.55
2023-01-31T18:52:03.593Z,3.33
2023-01-31T18:54:30.653Z,4.28
2023-01-31T18:56:57.483Z,7.50
2023-01-31T18:59:24.363Z,8.05
2023-01-31T19:01:54.367Z,13.88
2023-01-31T19:04:23.148Z,7.68
2023-01-31T19:06:52.220Z,9.35
2023-01-31T19:09:19.766Z,11.02
2023-01-31T19:11:46.912Z,12.88
2023-01-31T19:14:14.914Z,7.63
2023-01-31T19:16:42.664Z,9.30
2023-01-31T19:19:10.707Z,7.70
2023-01-31T19:21:38.939Z,7.03
2023-01-31T19:24:08.324Z,6.05
2023-01-31T19:26:35.959Z,8.73
2023-01-31T19:29:03.837Z,6.97
2023-01-31T19:31:32.628Z,5.22
2023-01-31T19:34:02.536Z,7.70
2023-01-31T19:36:32.742Z,7.50
2023-01-31T19:39:01.319Z,6.00
2023-01-31T19:41:29.237Z,6.72
2023-01-31T19:43:58.115Z,6.00
2023-01-31T19:46:27.727Z,6.35
2023-01-31T19:49:11.278Z,7.05
2023-01-31T19:51:55.762Z,4.45
2023-01-31T19:54:23.323Z,5.30
2023-01-31T19:56:50.611Z,6.55
2023-01-31T19:59:19.980Z,6.00
2023-01-31T20:01:48.828Z,10.98
2023-01-31T20:04:23.166Z,4.55
2023-01-31T20:09:40.391Z,7.72
2023-01-31T20:12:18.639Z,6.35
2023-01-31T20:14:45.547Z,5.32
2023-01-31T20:17:12.733Z,5.82
2023-01-31T20:19:58.170Z,6.13
2023-01-31T20:22:25.374Z,12.70
2023-01-31T20:24:53.888Z,5.70
2023-01-31T20:27:20.750Z,9.23
2023-01-31T20:29:47.859Z,6.95
2023-01-31T20:32:17.360Z,7.70
2023-01-31T20:34:44.788Z,6.40
2023-01-31T20:37:12.029Z,7.15
2023-01-31T20:39:39.329Z,12.45
2023-01-31T20:42:15.914Z,13.32
2023-01-31T20:44:43.845Z,10.75
2023-01-31T20:47:10.751Z,7.55
2023-01-31T20:49:38.000Z,11.18
2023-01-31T20:52:04.980Z,11.40
2023-01-31T20:54:41.317Z,7.90
2023-01-31T20:57:13.394Z,10.07
2023-01-31T20:59:40.154Z,8.13
2023-01-31T21:02:07.315Z,11.35
2023-01-31T21:04:34.272Z,8.32
2023-01-31T21:07:04.927Z,9.55
2023-01-31T21:09:31.710Z,11.15
2023-01-31T21:11:58.642Z,12.75
2023-01-31T21:14:26.012Z,11.10
2023-01-31T21:16:52.706Z,10.98
2023-01-31T21:19:19.723Z,8.38
2023-01-31T21:21:46.466Z,7.78
2023-01-31T21:24:13.552Z,9.60
2023-01-31T21:26:40.658Z,6.05
2023-01-31T21:29:08.980Z,9.90
2023-01-31T21:31:36.128Z,12.65
2023-01-31T21:34:06.720Z,18.90
2023-01-31T21:36:58.105Z,11.52
2023-01-31T21:39:25.262Z,15.70
2023-01-31T21:42:11.443Z,17.77
2023-01-31T21:44:42.622Z,18.35
2023-01-31T21:47:20.786Z,17.23
2023-01-31T21:49:47.896Z,26.67
2023-01-31T21:52:15.959Z,18.95
2023-01-31T21:54:46.288Z,17.02
2023-01-31T21:57:16.098Z,15.50
2023-01-31T21:59:45.843Z,15.23
2023-01-31T22:02:16.284Z,15.35
2023-01-31T22:05:02.959Z,13.07
2023-01-31T22:07:30.844Z,12.35
2023-01-31T22:10:03.152Z,13.90
2023-01-31T22:12:30.378Z,9.07
2023-01-31T22:14:57.165Z,9.77
2023-01-31T22:17:24.540Z,16.15
2023-01-31T22:19:51.271Z,9.35
2023-01-31T22:22:22.019Z,14.27
2023-01-31T22:25:01.091Z,8.95
2023-01-31T22:27:34.244Z,7.60
2023-01-31T22:33:39.108Z,5.82
2023-01-31T22:36:07.488Z,4.97
2023-01-31T22:38:37.418Z,4.30
2023-01-31T22:41:07.469Z,9.75
2023-01-31T22:43:42.879Z,5.80
2023-01-31T22:46:13.244Z,4.32
2023-01-31T22:48:40.152Z,9.90
2023-01-31T22:51:11.618Z,7.25
2023-01-31T22:53:39.139Z,11.57
2023-01-31T22:56:10.189Z,7.90
2023-01-31T22:58:37.327Z,8.50
2023-01-31T23:01:11.811Z,9.02
2023-01-31T23:03:38.846Z,7.30
2023-01-31T23:06:05.882Z,7.80
2023-01-31T23:08:32.711Z,8.00
2023-01-31T23:11:08.953Z,9.18
2023-01-31T23:13:36.171Z,6.07
2023-01-31T23:16:04.640Z,6.60
2023-01-31T23:18:32.158Z,5.13
2023-01-31T23:21:09.638Z,6.80
2023-01-31T23:23:37.002Z,5.40
2023-01-31T23:26:10.617Z,6.53
2023-01-31T23:28:37.880Z,7.00
2023-01-31T23:31:04.973Z,2.10
2023-01-31T23:33:32.108Z,4.18
2023-01-31T23:35:59.182Z,4.32
2023-01-31T23:38:28.576Z,5.28
2023-01-31T23:40:55.493Z,3.42
2023-01-31T23:43:26.857Z,4.72
2023-01-31T23:45:57.594Z,4.28
2023-01-31T23:48:24.561Z,5.75
2023-01-31T23:50:51.316Z,7.22
2023-01-31T23:53:18.081Z,5.07
2023-01-31T23:55:51.710Z,3.22
2023-01-31T23:58:41.668Z,2.53
